Time;durP1;ratioP1;P1;durP2;ratioP2;P2;SDS_P1;SDS_P2;PMS_P1;PMS_P2;Temp;Humidity;BMP_temperature;BMP_pressure;BME280_temperature;BME280_humidity;BME280_pressure;Samples;Min_cycle;Max_cycle;Signal;HPM_P1;HPM_P2
2023/10/04 00:02:52;;;;;;;19.58;11.95;;;;;;;12.22;100.00;100865.41;10246105;28;20074;-75
2023/10/04 00:07:55;;;;;;;18.58;11.20;;;;;;;12.17;100.00;100859.72;10244776;29;20117;-75
2023/10/04 00:12:56;;;;;;;28.83;16.27;;;;;;;12.20;100.00;100856.72;10243815;29;20047;-76
2023/10/04 00:17:57;;;;;;;35.50;18.38;;;;;;;12.27;100.00;100865.75;10246493;28;20189;-75
2023/10/04 00:22:58;;;;;;;34.90;18.52;;;;;;;12.01;100.00;100852.56;10246344;28;20043;-75
2023/10/04 00:28:00;;;;;;;26.23;15.68;;;;;;;12.09;100.00;100857.91;10245062;28;20561;-75
2023/10/04 00:33:08;;;;;;;43.10;15.48;;;;;;;11.57;100.00;100794.22;10245753;28;20054;-76
2023/10/04 00:38:12;;;;;;;23.90;13.77;;;;;;;11.83;100.00;100863.31;10245025;29;20146;-76
2023/10/04 00:43:15;;;;;;;25.15;12.98;;;;;;;11.76;100.00;100871.13;10245197;28;20122;-76
2023/10/04 00:48:24;;;;;;;22.27;12.32;;;;;;;11.45;100.00;100806.19;10245762;28;20046;-76
2023/10/04 00:53:26;;;;;;;22.05;11.77;;;;;;;11.61;100.00;100856.78;10245345;28;20052;-75
2023/10/04 00:58:28;;;;;;;18.90;12.32;;;;;;;11.69;100.00;100851.47;10244021;29;20491;-76
2023/10/04 01:03:30;;;;;;;15.77;10.68;;;;;;;11.45;100.00;100819.47;10244815;28;20595;-76
2023/10/04 01:08:33;;;;;;;26.60;11.18;;;;;;;11.53;100.00;100846.13;10244466;29;20457;-76
2023/10/04 01:13:34;;;;;;;19.55;9.80;;;;;;;11.08;100.00;100815.38;10244574;28;20122;-76
2023/10/04 01:18:36;;;;;;;16.80;11.18;;;;;;;10.97;100.00;100813.81;10245354;28;20422;-75
2023/10/04 01:23:40;;;;;;;18.42;10.57;;;;;;;11.10;100.00;100835.50;10249723;28;20042;-76
2023/10/04 01:28:41;;;;;;;17.85;10.02;;;;;;;11.04;100.00;100819.31;10250168;29;20475;-76
2023/10/04 01:33:42;;;;;;;21.73;11.10;;;;;;;11.35;100.00;100886.94;10250237;29;20050;-76
2023/10/04 01:38:43;;;;;;;21.10;11.27;;;;;;;11.05;100.00;100829.81;10251182;28;20070;-75
2023/10/04 01:43:44;;;;;;;21.85;11.35;;;;;;;11.22;100.00;100872.41;10250365;28;20089;-75
2023/10/04 01:48:45;;;;;;;18.42;10.75;;;;;;;11.11;100.00;100892.16;10250134;28;20035;-75
2023/10/04 01:53:46;;;;;;;18.92;11.07;;;;;;;10.55;100.00;100824.38;10250730;28;20513;-76
2023/10/04 01:58:48;;;;;;;24.10;11.77;;;;;;;10.90;100.00;100888.06;10250434;28;20082;-76
2023/10/04 02:03:49;;;;;;;30.00;11.27;;;;;;;10.65;100.00;100862.28;10249028;28;20039;-75
2023/10/04 02:08:50;;;;;;;21.25;12.05;;;;;;;10.79;100.00;100900.75;10249853;29;20530;-76
2023/10/04 02:13:52;;;;;;;24.92;11.13;;;;;;;10.69;100.00;100906.19;10249937;28;20089;-75
2023/10/04 02:18:53;;;;;;;22.00;10.95;;;;;;;10.18;100.00;100836.03;10249380;28;20047;-75
2023/10/04 02:23:54;;;;;;;16.67;11.25;;;;;;;10.67;100.00;100905.50;10250268;28;20055;-75
2023/10/04 02:28:55;;;;;;;19.67;10.85;;;;;;;10.64;100.00;100900.50;10248151;29;20102;-75
2023/10/04 02:33:57;;;;;;;19.35;12.05;;;;;;;10.28;100.00;100828.84;10248836;28;20057;-75
2023/10/04 02:38:58;;;;;;;28.20;10.93;;;;;;;10.46;100.00;100872.13;10247925;28;20487;-78
2023/10/04 02:44:02;;;;;;;29.13;11.07;;;;;;;10.53;100.00;100914.88;10247780;29;20047;-77
2023/10/04 02:49:04;;;;;;;42.33;12.18;;;;;;;10.38;100.00;100916.38;10247202;28;20087;-75
2023/10/04 02:54:05;;;;;;;24.92;11.32;;;;;;;10.27;100.00;100910.31;10248899;28;20039;-75
2023/10/04 02:59:05;;;;;;;32.38;11.07;;;;;;;10.34;100.00;100915.03;10248503;28;20051;-76
2023/10/04 03:04:09;;;;;;;28.33;10.80;;;;;;;9.82;100.00;100857.25;10248016;28;20097;-78
2023/10/04 03:09:10;;;;;;;61.60;11.65;;;;;;;9.77;100.00;100867.47;10248705;28;20039;-75
2023/10/04 03:14:15;;;;;;;31.23;11.05;;;;;;;9.76;100.00;100866.66;10248115;28;20093;-75
2023/10/04 03:19:16;;;;;;;49.17;11.45;;;;;;;10.12;100.00;100934.88;10247988;28;20557;-76
2023/10/04 03:24:18;;;;;;;43.85;12.20;;;;;;;10.00;100.00;100911.19;10247622;28;20039;-76
2023/10/04 03:29:19;;;;;;;144.50;17.15;;;;;;;9.63;100.00;100855.56;10247344;28;20041;-75
2023/10/04 03:34:22;;;;;;;40.38;11.70;;;;;;;9.98;100.00;100891.91;10247514;28;20043;-77
2023/10/04 03:39:26;;;;;;;63.80;14.75;;;;;;;10.09;100.00;100882.91;10244954;28;20050;-76
2023/10/04 03:44:27;;;;;;;35.10;15.60;;;;;;;10.52;100.00;100911.34;10245572;28;20170;-84
2023/10/04 03:49:27;;;;;;;49.00;15.25;;;;;;;10.07;100.00;100816.69;10245611;28;20040;-74
2023/10/04 03:54:29;;;;;;;33.60;12.73;;;;;;;11.13;100.00;100949.50;10245679;29;20047;-73
2023/10/04 03:59:30;;;;;;;35.63;13.45;;;;;;;11.46;100.00;100951.50;10246325;28;20043;-75
2023/10/04 04:04:33;;;;;;;22.83;11.13;;;;;;;11.52;100.00;100918.97;10246869;28;20052;-83
2023/10/04 04:09:41;;;;;;;17.58;11.30;;;;;;;11.69;100.00;100898.53;10246775;28;20134;-75
2023/10/04 04:14:43;;;;;;;31.83;11.38;;;;;;;12.29;100.00;100949.84;10246734;28;20491;-83
2023/10/04 04:19:44;;;;;;;21.95;11.82;;;;;;;12.43;100.00;100942.19;10238830;28;20044;-73
2023/10/04 04:24:45;;;;;;;25.00;12.27;;;;;;;12.43;100.00;100940.34;10205670;29;20055;-73
2023/10/04 04:29:46;;;;;;;13.85;9.18;;;;;;;12.56;100.00;100959.34;10205791;29;20044;-84
2023/10/04 04:34:47;;;;;;;12.23;9.30;;;;;;;12.48;100.00;100930.03;10205835;29;20051;-80
2023/10/04 04:39:47;;;;;;;14.63;7.78;;;;;;;13.12;100.00;100983.47;10205319;29;20604;-78
2023/10/04 04:44:48;;;;;;;25.08;7.88;;;;;;;13.56;100.00;100980.41;10205576;29;20044;-77
2023/10/04 04:49:49;;;;;;;19.05;7.78;;;;;;;13.52;100.00;100939.06;10205269;29;20039;-75
2023/10/04 04:54:50;;;;;;;13.05;8.55;;;;;;;13.69;100.00;100937.97;10205630;29;20039;-76
2023/10/04 04:59:55;;;;;;;17.35;9.32;;;;;;;14.33;100.00;100995.75;10213173;29;20047;-76
2023/10/04 05:04:57;;;;;;;19.50;9.65;;;;;;;14.19;100.00;100922.50;10212202;29;20048;-76
2023/10/04 05:09:59;;;;;;;12.88;9.18;;;;;;;14.94;100.00;100993.97;10211822;29;20040;-76
2023/10/04 05:15:01;;;;;;;35.10;11.38;;;;;;;15.27;100.00;101007.88;10212287;29;20048;-76
2023/10/04 05:20:04;;;;;;;30.08;12.52;;;;;;;15.19;100.00;100957.09;10211642;29;20040;-76
2023/10/04 05:25:06;;;;;;;18.25;12.38;;;;;;;15.61;100.00;100974.38;10212579;29;20090;-76
2023/10/04 05:30:09;;;;;;;17.02;11.73;;;;;;;15.91;100.00;101015.41;10212396;29;20047;-75
2023/10/04 05:35:14;;;;;;;17.60;11.90;;;;;;;16.09;100.00;101011.47;10210916;29;20392;-76
2023/10/04 05:40:25;;;;;;;18.65;11.52;;;;;;;16.08;99.24;100997.25;10210922;29;20126;-75
2023/10/04 05:45:26;;;;;;;17.85;10.65;;;;;;;16.45;97.58;101022.19;10211375;29;20044;-76
2023/10/04 05:50:32;;;;;;;17.83;11.27;;;;;;;16.46;96.87;101015.84;10211448;29;20134;-76
2023/10/04 05:55:37;;;;;;;16.67;11.15;;;;;;;15.96;94.65;100899.63;10210705;29;20549;-75
2023/10/04 06:00:41;;;;;;;18.67;10.82;;;;;;;16.44;94.32;100946.28;10210258;29;20054;-76
2023/10/04 06:05:42;;;;;;;19.27;11.82;;;;;;;16.92;93.49;101009.28;10211252;29;20054;-75
2023/10/04 06:10:43;;;;;;;16.20;12.70;;;;;;;17.26;93.68;101008.50;10210302;29;20480;-75
2023/10/04 06:15:47;;;;;;;15.43;10.82;;;;;;;17.45;92.39;101017.75;10210580;29;20086;-76
2023/10/04 06:20:49;;;;;;;19.00;10.77;;;;;;;17.66;92.03;101014.16;10210642;29;20061;-75
2023/10/04 06:25:50;;;;;;;14.43;10.45;;;;;;;17.70;91.41;100983.16;10209251;29;20062;-76
2023/10/04 06:30:52;;;;;;;13.20;10.88;;;;;;;17.96;91.01;101004.00;10209302;29;20051;-76
2023/10/04 06:35:52;;;;;;;17.65;13.25;;;;;;;18.28;90.44;101001.59;10209367;29;20051;-76
2023/10/04 06:40:53;;;;;;;13.38;10.18;;;;;;;18.20;89.05;100936.22;10209791;29;20039;-76
2023/10/04 06:45:54;;;;;;;16.83;10.05;;;;;;;18.66;88.23;100991.97;10208970;29;20526;-76
2023/10/04 06:50:55;;;;;;;21.77;11.13;;;;;;;19.02;87.67;100987.25;10209388;29;20063;-76
2023/10/04 06:55:55;;;;;;;18.52;10.65;;;;;;;19.27;86.58;100984.75;10209288;29;20043;-76
2023/10/04 07:00:57;;;;;;;16.30;10.15;;;;;;;19.18;85.27;100940.22;10208978;29;20048;-77
2023/10/04 07:05:58;;;;;;;16.35;10.15;;;;;;;19.64;83.99;100990.47;10209316;29;20039;-76
2023/10/04 07:11:00;;;;;;;19.20;10.30;;;;;;;19.80;83.39;100952.28;10208134;29;20508;-76
2023/10/04 07:16:01;;;;;;;14.35;8.90;;;;;;;20.17;81.79;100971.41;10208108;29;20094;-75
2023/10/04 07:21:02;;;;;;;15.88;9.75;;;;;;;20.38;80.24;100976.47;10208412;29;20079;-75
2023/10/04 07:26:03;;;;;;;21.00;9.65;;;;;;;20.42;79.22;100928.28;10208526;29;20504;-75
2023/10/04 07:31:04;;;;;;;13.07;9.48;;;;;;;20.79;78.21;100944.63;10207538;29;20040;-75
2023/10/04 07:36:05;;;;;;;15.65;8.63;;;;;;;21.13;76.76;100978.41;10207348;29;20036;-75
2023/10/04 07:41:05;;;;;;;14.88;9.43;;;;;;;21.04;76.72;100923.00;10207218;29;20051;-75
2023/10/04 07:46:06;;;;;;;22.88;9.15;;;;;;;21.47;76.46;100977.03;10208117;29;20061;-75
2023/10/04 07:51:08;;;;;;;9.93;8.07;;;;;;;21.47;74.73;100952.72;10207488;29;20051;-75
2023/10/04 07:56:11;;;;;;;19.10;9.02;;;;;;;21.89;73.54;100956.34;10206842;29;20035;-75
2023/10/04 08:01:14;;;;;;;10.90;8.32;;;;;;;21.93;72.92;100955.91;10207390;29;20043;-75
2023/10/04 08:06:15;;;;;;;12.77;8.87;;;;;;;21.97;73.14;100954.41;10207116;29;20047;-76
2023/10/04 08:11:16;;;;;;;20.08;9.65;;;;;;;21.94;72.71;100944.03;10207189;29;20039;-75
2023/10/04 08:16:16;;;;;;;18.73;9.75;;;;;;;22.09;72.19;100955.28;10206210;29;20071;-75
2023/10/04 08:21:17;;;;;;;19.30;9.43;;;;;;;22.32;70.81;100922.91;10206681;29;20056;-75
2023/10/04 08:26:18;;;;;;;19.20;9.45;;;;;;;22.43;69.55;100944.81;10206380;29;20056;-75
2023/10/04 08:31:18;;;;;;;14.23;9.73;;;;;;;22.47;69.21;100946.03;10205718;29;20044;-75
2023/10/04 08:36:19;;;;;;;19.42;9.65;;;;;;;22.36;69.32;100907.03;10206138;29;20043;-75
2023/10/04 08:41:20;;;;;;;14.82;9.30;;;;;;;22.80;68.67;100940.06;10206306;29;20050;-75
2023/10/04 08:46:22;;;;;;;23.35;9.32;;;;;;;22.20;67.86;100878.75;10205404;29;20411;-75
2023/10/04 08:51:40;;;;;;;19.48;9.00;;;;;;;22.60;67.40;100917.91;10206923;29;20032;-75
2023/10/04 08:56:47;;;;;;;12.80;8.82;;;;;;;22.56;66.34;100882.34;10205334;29;20044;-79
2023/10/04 09:01:50;;;;;;;14.07;8.23;;;;;;;22.54;66.69;100877.16;10204194;29;20105;-75
2023/10/04 09:06:52;;;;;;;18.40;8.27;;;;;;;22.30;66.42;100833.00;10205575;29;20132;-75
2023/10/04 09:11:53;;;;;;;13.23;7.75;;;;;;;23.10;65.93;100917.47;10206090;29;20130;-75
2023/10/04 09:17:17;;;;;;;12.63;8.00;;;;;;;22.94;65.42;100875.63;10205201;29;20483;-76
2023/10/04 09:22:29;;;;;;;12.20;7.88;;;;;;;23.00;66.03;100858.44;10205817;29;20089;-75
2023/10/04 09:27:30;;;;;;;15.98;7.13;;;;;;;23.41;64.44;100898.09;10205349;29;20070;-75
2023/10/04 09:32:35;;;;;;;16.00;7.10;;;;;;;23.37;63.57;100887.97;10204626;29;20059;-76
2023/10/04 09:37:37;;;;;;;13.80;6.75;;;;;;;23.00;63.49;100804.25;10205548;29;20419;-75
2023/10/04 09:42:52;;;;;;;12.45;6.22;;;;;;;23.78;61.90;100886.94;10206157;29;20051;-75
2023/10/04 09:47:53;;;;;;;15.25;5.35;;;;;;;23.72;61.12;100884.34;10210696;29;20039;-75
2023/10/04 09:52:54;;;;;;;13.38;5.28;;;;;;;23.57;60.09;100863.97;10211245;29;20054;-75
2023/10/04 09:57:55;;;;;;;6.22;3.38;;;;;;;23.39;57.86;100812.63;10210973;29;20050;-75
2023/10/04 10:02:59;;;;;;;15.50;4.63;;;;;;;23.74;56.98;100868.66;10210484;29;20042;-75
2023/10/04 10:08:07;;;;;;;10.48;4.28;;;;;;;23.38;55.18;100805.56;10210820;29;20048;-75
2023/10/04 10:13:09;;;;;;;13.55;3.92;;;;;;;23.77;55.51;100866.28;10209449;29;20507;-75
2023/10/04 10:18:11;;;;;;;6.03;3.95;;;;;;;23.59;55.26;100821.16;10209827;29;20055;-75
2023/10/04 10:23:15;;;;;;;5.32;3.53;;;;;;;23.63;55.23;100794.38;10210355;29;20438;-76
2023/10/04 10:28:22;;;;;;;12.18;4.30;;;;;;;23.98;52.10;100839.50;10210406;29;20060;-75
2023/10/04 10:33:23;;;;;;;6.82;2.95;;;;;;;24.02;52.90;100851.50;10210343;29;20090;-75
2023/10/04 10:38:43;;;;;;;6.05;2.70;;;;;;;23.86;48.17;100818.69;10209716;29;20097;-75
2023/10/04 10:44:13;;;;;;;9.00;3.30;;;;;;;24.23;49.45;100855.41;10209058;29;20079;-75
2023/10/04 10:49:40;;;;;;;5.40;2.80;;;;;;;24.15;48.10;100851.22;10210380;28;20048;-75
2023/10/04 10:54:42;;;;;;;5.82;2.78;;;;;;;23.67;48.90;100784.69;10209360;29;20070;-75
2023/10/04 10:59:42;;;;;;;9.02;2.75;;;;;;;24.01;48.11;100820.03;10209575;29;20039;-75
2023/10/04 11:04:43;;;;;;;10.35;3.22;;;;;;;24.04;46.54;100833.91;10209045;29;20044;-75
2023/10/04 11:09:54;;;;;;;8.50;2.90;;;;;;;23.88;46.37;100832.03;10208813;29;20039;-75
2023/10/04 11:14:56;;;;;;;9.20;2.60;;;;;;;23.88;46.55;100840.97;10208721;29;20044;-76
2023/10/04 11:19:56;;;;;;;13.35;2.53;;;;;;;23.92;45.32;100839.41;10208394;29;20044;-76
2023/10/04 11:24:57;;;;;;;13.57;2.85;;;;;;;24.04;45.09;100844.78;10208326;29;20066;-76
2023/10/04 11:29:59;;;;;;;9.90;2.58;;;;;;;24.13;45.11;100851.44;10208301;29;20089;-75
2023/10/04 11:35:17;;;;;;;6.10;3.03;;;;;;;24.09;44.96;100844.88;10208108;29;20451;-76
2023/10/04 11:40:20;;;;;;;12.27;3.20;;;;;;;24.10;46.06;100849.22;10207947;29;20055;-76
2023/10/04 11:45:23;;;;;;;15.90;4.30;;;;;;;23.64;46.37;100787.88;10208413;29;20044;-76
2023/10/04 11:50:24;;;;;;;7.47;3.80;;;;;;;23.81;46.68;100809.63;10207708;29;20044;-77
2023/10/04 11:55:26;;;;;;;10.18;3.78;;;;;;;23.80;46.18;100833.22;10207642;29;20043;-76
2023/10/04 12:00:27;;;;;;;15.00;4.68;;;;;;;23.78;46.56;100810.13;10206697;29;20079;-75
2023/10/04 12:05:28;;;;;;;12.20;4.40;;;;;;;23.77;46.94;100822.88;10205695;29;20039;-75
2023/10/04 12:10:28;;;;;;;9.25;4.70;;;;;;;23.43;46.61;100765.81;10206564;29;20040;-76
2023/10/04 12:15:29;;;;;;;8.85;4.05;;;;;;;23.52;47.39;100846.78;10207215;29;20185;-76
2023/10/04 12:20:35;;;;;;;18.27;5.30;;;;;;;22.82;47.68;100788.13;10206657;29;20044;-76
2023/10/04 12:25:42;;;;;;;15.75;5.53;;;;;;;22.45;48.13;100808.16;10206637;29;20423;-76
2023/10/04 12:30:43;;;;;;;11.40;5.05;;;;;;;22.17;49.18;100808.06;10206061;29;20039;-76
2023/10/04 12:35:44;;;;;;;12.63;6.00;;;;;;;22.03;50.50;100823.63;10213996;29;20046;-76
2023/10/04 12:40:44;;;;;;;11.40;5.40;;;;;;;21.99;52.12;100857.63;10245933;28;20043;-77
2023/10/04 12:45:46;;;;;;;9.95;5.93;;;;;;;21.30;52.65;100811.94;10245612;28;20043;-77
2023/10/04 12:50:48;;;;;;;14.80;6.07;;;;;;;20.84;52.47;100848.41;10244843;28;20454;-77
2023/10/04 12:55:50;;;;;;;16.08;7.20;;;;;;;20.67;52.42;100860.81;10244000;28;20518;-77
2023/10/04 13:00:51;;;;;;;12.82;7.32;;;;;;;20.27;51.98;100834.97;10245454;29;20078;-75
2023/10/04 13:05:51;;;;;;;12.23;7.35;;;;;;;20.30;52.52;100866.91;10245172;28;20070;-75
2023/10/04 13:10:55;;;;;;;11.82;8.48;;;;;;;20.19;53.02;100856.84;10244527;28;20036;-75
2023/10/04 13:15:56;;;;;;;13.37;6.93;;;;;;;20.02;52.91;100839.53;10246025;28;20082;-76
2023/10/04 13:20:58;;;;;;;14.68;7.38;;;;;;;20.11;53.10;100845.50;10251602;28;20409;-76
2023/10/04 13:25:59;;;;;;;55.58;9.95;;;;;;;20.14;55.30;100842.38;10251538;28;20510;-76
2023/10/04 13:31:00;;;;;;;22.80;8.88;;;;;;;19.71;56.29;100759.47;10251027;28;20092;-76
2023/10/04 13:36:00;;;;;;;20.15;7.63;;;;;;;19.74;56.36;100756.34;10251427;28;20521;-76
2023/10/04 13:41:01;;;;;;;49.20;9.98;;;;;;;20.14;58.92;100829.69;10251053;28;20427;-76
2023/10/04 13:46:06;;;;;;;86.88;11.73;;;;;;;19.69;61.66;100773.19;10251332;28;20395;-76
2023/10/04 13:51:08;;;;;;;21.45;8.43;;;;;;;19.88;63.05;100838.78;10250911;28;20185;-76
2023/10/04 13:56:08;;;;;;;30.70;9.32;;;;;;;19.42;63.39;100785.16;10250184;28;20066;-75
2023/10/04 14:01:11;;;;;;;17.63;7.22;;;;;;;18.96;63.42;100733.13;10249876;28;20047;-76
2023/10/04 14:06:12;;;;;;;18.77;8.43;;;;;;;19.35;65.39;100820.19;10250461;29;20046;-77
2023/10/04 14:11:13;;;;;;;52.42;10.63;;;;;;;19.31;67.44;100852.09;10248395;28;20491;-77
2023/10/04 14:16:14;;;;;;;26.35;8.82;;;;;;;19.01;67.61;100843.72;10244665;29;20051;-79
2023/10/04 14:21:14;;;;;;;27.00;15.27;;;;;;;18.74;69.42;100856.41;10245590;28;20047;-75
2023/10/04 14:26:15;;;;;;;17.30;8.50;;;;;;;18.66;66.63;100883.50;10249732;28;20524;-75
2023/10/04 14:31:16;;;;;;;12.55;6.30;;;;;;;18.37;64.76;100852.47;10248339;28;20055;-76
2023/10/04 14:36:17;;;;;;;9.15;5.47;;;;;;;18.38;64.27;100860.31;10248852;28;20074;-76
2023/10/04 14:41:18;;;;;;;10.77;5.90;;;;;;;18.09;64.33;100831.97;10249244;28;20051;-77
2023/10/04 14:46:18;;;;;;;17.65;6.28;;;;;;;18.16;64.13;100854.31;10248628;28;20502;-76
2023/10/04 14:51:20;;;;;;;44.08;7.28;;;;;;;18.12;65.52;100869.19;10248098;29;20134;-77
2023/10/04 14:56:20;;;;;;;56.50;7.03;;;;;;;17.23;67.17;100760.06;10248844;28;20077;-76
2023/10/04 15:01:21;;;;;;;40.08;6.68;;;;;;;17.85;67.81;100867.50;10248629;28;20043;-76
2023/10/04 15:06:24;;;;;;;22.23;7.05;;;;;;;17.19;68.85;100792.84;10248135;28;20047;-76
2023/10/04 15:11:27;;;;;;;31.13;7.53;;;;;;;17.45;70.20;100873.53;10248572;28;20514;-78
2023/10/04 15:16:28;;;;;;;58.28;21.70;;;;;;;17.16;70.02;100820.09;10248990;28;20059;-77
2023/10/04 15:21:29;;;;;;;70.40;28.60;;;;;;;17.33;70.38;100849.09;10248102;28;20122;-76
2023/10/04 15:26:31;;;;;;;47.60;22.25;;;;;;;17.14;69.88;100823.00;10247391;28;20063;-77
2023/10/04 15:31:32;;;;;;;40.17;20.60;;;;;;;17.29;70.57;100857.75;10244745;28;20118;-72
2023/10/04 15:36:32;;;;;;;28.00;13.27;;;;;;;17.28;70.51;100872.22;10247030;28;20040;-77
2023/10/04 15:41:33;;;;;;;36.00;10.15;;;;;;;17.26;70.88;100869.72;10246977;28;20051;-75
2023/10/04 15:46:34;;;;;;;22.73;9.02;;;;;;;17.22;71.92;100876.50;10246175;28;20092;-71
2023/10/04 15:51:38;;;;;;;17.35;8.90;;;;;;;16.80;72.62;100823.84;10246428;28;20471;-72
2023/10/04 15:56:38;;;;;;;37.10;9.88;;;;;;;16.99;74.09;100882.19;10244325;29;20042;-74
2023/10/04 16:01:39;;;;;;;24.02;9.93;;;;;;;16.65;74.83;100864.16;10244981;28;20050;-75
2023/10/04 16:06:41;;;;;;;26.48;10.32;;;;;;;16.64;75.73;100897.38;10245985;28;20517;-75
2023/10/04 16:11:44;;;;;;;21.45;9.55;;;;;;;16.05;76.95;100817.25;10246728;28;20142;-76
2023/10/04 16:16:46;;;;;;;20.00;11.00;;;;;;;16.39;77.41;100903.16;10245693;28;20534;-75
2023/10/04 16:21:47;;;;;;;24.15;11.43;;;;;;;16.15;78.35;100888.28;10246804;29;20134;-76
2023/10/04 16:26:48;;;;;;;23.90;11.27;;;;;;;16.08;79.76;100905.31;10246284;28;20090;-76
2023/10/04 16:31:49;;;;;;;21.08;11.23;;;;;;;15.94;80.53;100905.19;10246113;28;20129;-76
2023/10/04 16:36:52;;;;;;;25.00;12.90;;;;;;;15.19;81.29;100809.06;10245215;28;20043;-75
2023/10/04 16:41:52;;;;;;;31.85;11.25;;;;;;;15.35;82.10;100850.88;10245479;28;20043;-75
2023/10/04 16:46:53;;;;;;;26.00;13.50;;;;;;;15.21;82.98;100836.50;10245178;29;20047;-75
2023/10/04 16:51:54;;;;;;;16.67;10.98;;;;;;;15.47;83.98;100910.97;10246725;28;20141;-74
2023/10/04 16:56:55;;;;;;;20.50;12.00;;;;;;;15.31;85.35;100895.91;10251478;29;20050;-74
2023/10/04 17:01:55;;;;;;;28.40;12.27;;;;;;;15.07;86.26;100884.47;10252343;28;20540;-75
2023/10/04 17:06:56;;;;;;;25.35;11.52;;;;;;;14.87;86.82;100880.69;10251005;29;20165;-75
2023/10/04 17:11:57;;;;;;;35.85;12.77;;;;;;;14.85;87.93;100901.44;10251560;28;20047;-75
2023/10/04 17:16:58;;;;;;;21.92;12.05;;;;;;;14.59;88.57;100875.94;10251468;29;20510;-75
2023/10/04 17:21:59;;;;;;;19.90;12.20;;;;;;;14.60;89.19;100877.59;10251843;28;20071;-75
2023/10/04 17:27:00;;;;;;;29.80;11.68;;;;;;;14.38;89.45;100857.88;10250234;28;20082;-75
2023/10/04 17:32:03;;;;;;;31.20;13.52;;;;;;;13.80;89.95;100797.91;10251859;28;20051;-75
2023/10/04 17:37:04;;;;;;;28.08;12.88;;;;;;;13.97;90.23;100837.81;10251258;28;20058;-75
2023/10/04 17:42:05;;;;;;;49.05;14.02;;;;;;;14.25;90.96;100902.25;10250300;28;20129;-75
2023/10/04 17:47:06;;;;;;;25.85;12.80;;;;;;;14.37;91.17;100927.56;10251426;28;20047;-77
2023/10/04 17:52:07;;;;;;;64.20;14.00;;;;;;;13.77;91.42;100837.47;10250213;28;20503;-76
2023/10/04 17:57:08;;;;;;;24.73;12.98;;;;;;;13.63;91.67;100825.69;10250940;29;20039;-76
2023/10/04 18:02:09;;;;;;;28.60;14.30;;;;;;;13.94;91.76;100897.81;10247964;28;20498;-76
2023/10/04 18:07:10;;;;;;;31.65;13.65;;;;;;;13.33;92.06;100808.69;10248470;28;20047;-78
2023/10/04 18:12:11;;;;;;;22.58;12.77;;;;;;;13.39;92.37;100850.69;10250185;28;20105;-76
2023/10/04 18:17:12;;;;;;;26.35;12.25;;;;;;;13.08;93.02;100800.78;10248672;29;20043;-76
2023/10/04 18:22:13;;;;;;;29.90;12.35;;;;;;;12.88;92.95;100786.19;10249253;29;20037;-76
2023/10/04 18:27:14;;;;;;;25.08;12.55;;;;;;;13.72;93.34;100962.66;10249232;28;20494;-76
2023/10/04 18:32:15;;;;;;;30.05;13.15;;;;;;;12.60;93.79;100767.94;10250473;28;20138;-76
2023/10/04 18:37:15;;;;;;;24.02;11.35;;;;;;;13.61;93.55;100954.03;10248592;28;20545;-75
2023/10/04 18:42:16;;;;;;;18.33;10.27;;;;;;;12.80;94.13;100800.34;10245436;28;20039;-75
2023/10/04 18:47:17;;;;;;;15.40;9.35;;;;;;;13.06;94.09;100849.97;10240057;28;20055;-76
2023/10/04 18:52:18;;;;;;;20.33;10.88;;;;;;;13.23;93.79;100902.25;10220065;28;20046;-76
2023/10/04 18:57:20;;;;;;;16.05;9.98;;;;;;;12.74;94.40;100841.88;10220405;29;20165;-76
2023/10/04 19:02:21;;;;;;;15.82;9.50;;;;;;;13.03;94.06;100864.47;10243322;28;21145;-76
2023/10/04 19:07:22;;;;;;;26.65;9.55;;;;;;;12.78;94.37;100826.38;10217417;29;20082;-76
2023/10/04 19:12:23;;;;;;;28.10;15.55;;;;;;;13.57;94.43;100968.72;10208962;29;20074;-76
2023/10/04 19:17:24;;;;;;;15.85;9.85;;;;;;;13.18;94.90;100916.09;10207476;29;20047;-76
2023/10/04 19:22:26;;;;;;;27.92;10.15;;;;;;;12.89;95.30;100881.16;10221148;29;20039;-76
2023/10/04 19:27:27;;;;;;;15.70;9.48;;;;;;;12.49;95.96;100846.41;10246936;28;20147;-75
2023/10/04 19:32:28;;;;;;;21.70;9.98;;;;;;;12.41;96.17;100834.91;10246631;29;20574;-76
2023/10/04 19:37:29;;;;;;;21.40;10.63;;;;;;;12.74;96.37;100902.34;10248244;28;20108;-76
2023/10/04 19:42:30;;;;;;;29.52;11.27;;;;;;;12.30;96.49;100842.25;10247003;28;20035;-75
2023/10/04 19:47:31;;;;;;;28.45;11.68;;;;;;;12.43;96.52;100886.22;10245829;29;20043;-76
2023/10/04 19:52:33;;;;;;;61.78;12.65;;;;;;;12.16;97.25;100826.94;10246515;29;20039;-76
2023/10/04 19:57:35;;;;;;;16.77;10.00;;;;;;;11.82;97.19;100766.66;10246594;28;20048;-75
2023/10/04 20:02:36;;;;;;;22.63;9.98;;;;;;;12.45;97.43;100892.22;10246072;28;20035;-75
2023/10/04 20:07:40;;;;;;;40.15;10.25;;;;;;;12.15;97.62;100865.25;10245916;29;20047;-75
2023/10/04 20:12:41;;;;;;;24.42;10.32;;;;;;;11.79;98.01;100830.06;10244839;29;20507;-75
2023/10/04 20:17:43;;;;;;;22.13;9.98;;;;;;;11.39;98.19;100773.91;10244967;29;20054;-76
2023/10/04 20:22:44;;;;;;;18.52;10.35;;;;;;;11.51;98.79;100785.06;10245958;28;20476;-75
2023/10/04 20:27:45;;;;;;;14.05;9.52;;;;;;;11.81;98.62;100834.19;10243987;29;20051;-75
2023/10/04 20:32:46;;;;;;;20.60;9.07;;;;;;;11.69;98.80;100829.34;10244193;29;20146;-75
2023/10/04 20:37:47;;;;;;;16.23;8.70;;;;;;;11.98;98.96;100868.88;10244816;28;20106;-75
2023/10/04 20:42:48;;;;;;;15.15;9.02;;;;;;;11.58;99.20;100817.22;10245395;28;20066;-75
2023/10/04 20:47:49;;;;;;;15.38;9.35;;;;;;;11.79;98.98;100862.81;10244254;29;20532;-75
2023/10/04 20:52:50;;;;;;;19.98;9.10;;;;;;;11.84;99.21;100876.47;10245276;28;20047;-75
2023/10/04 20:57:50;;;;;;;18.98;8.88;;;;;;;11.84;99.52;100900.41;10243998;28;20046;-76
2023/10/04 21:02:51;;;;;;;16.65;9.18;;;;;;;11.96;99.56;100908.97;10243801;29;20057;-75
2023/10/04 21:07:52;;;;;;;21.50;9.38;;;;;;;11.29;100.00;100812.28;10243213;28;20049;-75
2023/10/04 21:12:53;;;;;;;24.23;10.05;;;;;;;11.08;100.00;100783.47;10243596;29;20403;-76
2023/10/04 21:17:54;;;;;;;17.63;9.63;;;;;;;11.02;100.00;100766.31;10245281;28;20046;-76
2023/10/04 21:22:54;;;;;;;25.48;10.85;;;;;;;10.99;100.00;100787.91;10243326;29;20047;-76
2023/10/04 21:27:55;;;;;;;17.50;10.52;;;;;;;11.17;100.00;100809.09;10243987;28;20055;-76
2023/10/04 21:33:03;;;;;;;20.25;10.82;;;;;;;10.73;100.00;100745.44;10242652;29;20051;-76
2023/10/04 21:38:07;;;;;;;14.85;10.50;;;;;;;11.17;100.00;100830.38;10245651;28;20204;-76
2023/10/04 21:43:09;;;;;;;22.45;11.45;;;;;;;11.11;100.00;100823.03;10225609;29;20051;-76
2023/10/04 21:48:17;;;;;;;22.08;11.35;;;;;;;11.08;100.00;100812.72;10211171;29;20058;-78
2023/10/04 21:53:17;;;;;;;27.02;10.43;;;;;;;11.47;100.00;100889.34;10212176;29;20047;-76
2023/10/04 21:58:18;;;;;;;17.80;11.00;;;;;;;11.61;100.00;100918.00;10210302;29;20048;-76
2023/10/04 22:03:22;;;;;;;19.05;10.95;;;;;;;10.70;100.00;100807.69;10210254;29;20044;-76
2023/10/04 22:08:23;;;;;;;29.00;10.82;;;;;;;11.40;100.00;100918.41;10210369;29;20047;-76
2023/10/04 22:13:25;;;;;;;40.17;14.57;;;;;;;10.42;100.00;100767.19;10210780;29;20039;-76
2023/10/04 22:18:26;;;;;;;53.15;30.17;;;;;;;10.97;100.00;100870.47;10224180;29;20117;-76
2023/10/04 22:23:28;;;;;;;43.30;23.33;;;;;;;10.89;100.00;100857.16;10224457;29;20051;-76
2023/10/04 22:28:29;;;;;;;63.42;30.42;;;;;;;10.41;100.00;100796.53;10224572;29;20067;-76
2023/10/04 22:33:30;;;;;;;38.38;18.90;;;;;;;10.26;100.00;100767.94;10209540;29;20086;-76
2023/10/04 22:38:32;;;;;;;22.95;14.77;;;;;;;10.54;100.00;100833.34;10208711;29;20082;-76
2023/10/04 22:43:33;;;;;;;27.98;13.00;;;;;;;11.09;100.00;100913.56;10208968;29;20048;-76